Time;durP1;ratioP1;P1;durP2;ratioP2;P2;SDS_P1;SDS_P2;PMS_P1;PMS_P2;Temp;Humidity;BMP_temperature;BMP_pressure;BME280_temperature;BME280_humidity;BME280_pressure;Samples;Min_cycle;Max_cycle;Signal;HPM_P1;HPM_P2
2021/12/13 00:00:43;;;;;;;85.65;15.90;;;3.70;99.90;;;;;;5093707;28;20048;-75
2021/12/13 00:03:16;;;;;;;38.20;10.30;;;3.70;99.90;;;;;;5093237;28;20101;-73
2021/12/13 00:05:47;;;;;;;36.67;10.60;;;3.70;99.90;;;;;;5092630;28;20116;-74
2021/12/13 00:08:19;;;;;;;69.17;14.10;;;3.80;99.90;;;;;;5093730;28;20043;-75
2021/12/13 00:10:49;;;;;;;54.60;13.47;;;3.80;99.90;;;;;;5093029;28;20097;-77
2021/12/13 00:13:19;;;;;;;36.17;11.63;;;3.80;99.90;;;;;;5092574;28;20553;-76
2021/12/13 00:15:53;;;;;;;23.53;12.17;;;3.80;99.90;;;;;;5092363;28;20512;-75
2021/12/13 00:18:25;;;;;;;75.40;14.20;;;3.80;99.90;;;;;;5093018;28;20048;-75
2021/12/13 00:20:59;;;;;;;31.23;11.63;;;3.80;99.90;;;;;;5093521;28;20048;-75
2021/12/13 00:23:29;;;;;;;21.30;9.97;;;3.80;99.90;;;;;;5093593;28;20048;-76
2021/12/13 00:25:58;;;;;;;30.93;11.63;;;3.80;99.90;;;;;;5092694;28;20044;-74
2021/12/13 00:28:27;;;;;;;53.37;12.97;;;3.80;99.90;;;;;;5093254;28;20086;-76
2021/12/13 00:31:02;;;;;;;39.00;11.73;;;3.90;99.90;;;;;;5093133;28;20044;-75
2021/12/13 00:33:37;;;;;;;54.40;12.00;;;3.90;99.90;;;;;;5092722;28;20078;-76
2021/12/13 00:36:12;;;;;;;32.90;11.17;;;3.90;99.90;;;;;;5092452;28;20089;-74
2021/12/13 00:38:54;;;;;;;23.23;11.30;;;4.00;99.90;;;;;;5093101;28;20048;-76
2021/12/13 00:41:25;;;;;;;31.00;12.90;;;4.00;99.90;;;;;;5092292;28;20059;-75
2021/12/13 00:43:56;;;;;;;22.27;9.30;;;4.00;99.90;;;;;;5092365;28;20135;-76
2021/12/13 00:46:25;;;;;;;23.57;11.83;;;4.00;99.90;;;;;;5091690;28;20123;-77
2021/12/13 00:48:55;;;;;;;113.37;16.63;;;4.00;99.90;;;;;;5092115;28;20044;-77
2021/12/13 00:51:26;;;;;;;22.40;11.23;;;4.00;99.90;;;;;;5092243;28;20040;-76
2021/12/13 00:53:55;;;;;;;51.13;13.48;;;4.10;99.90;;;;;;5091904;28;20493;-75
2021/12/13 00:56:48;;;;;;;69.33;14.87;;;4.10;99.90;;;;;;5091581;28;20454;-76
2021/12/13 00:59:19;;;;;;;;;;;4.10;99.90;;;;;;5092500;28;20051;-77
2021/12/13 01:01:52;;;;;;;64.75;13.18;;;4.00;99.90;;;;;;5091970;28;19973;-77
2021/12/13 01:04:19;;;;;;;43.20;10.77;;;4.10;99.90;;;;;;5091608;28;20048;-77
2021/12/13 01:07:19;;;;;;;30.77;12.07;;;4.20;99.90;;;;;;5092057;28;20044;-76
2021/12/13 01:10:21;;;;;;;24.83;12.00;;;4.30;99.90;;;;;;5091687;28;20108;-76
2021/12/13 01:12:51;;;;;;;37.17;12.47;;;4.20;99.90;;;;;;5065917;28;20056;-75
2021/12/13 01:15:28;;;;;;;26.10;11.80;;;4.30;99.90;;;;;;5090799;28;20048;-75
2021/12/13 01:18:03;;;;;;;29.33;12.03;;;4.30;99.90;;;;;;5091706;28;20052;-76
2021/12/13 01:20:43;;;;;;;23.20;11.23;;;4.30;99.90;;;;;;5091977;28;20063;-75
2021/12/13 01:23:16;;;;;;;29.07;12.53;;;4.30;99.90;;;;;;5091661;28;20077;-76
2021/12/13 01:25:48;;;;;;;31.23;12.33;;;4.20;99.90;;;;;;5091239;28;20055;-77
2021/12/13 01:28:20;;;;;;;;;;;4.30;99.90;;;;;;5092145;28;20052;-76
2021/12/13 01:30:51;;;;;;;34.55;12.68;;;4.30;99.90;;;;;;5091856;28;19920;-76
2021/12/13 01:33:20;;;;;;;22.48;9.20;;;4.30;99.90;;;;;;5091863;28;20048;-76
2021/12/13 01:35:51;;;;;;;45.23;12.23;;;4.20;99.90;;;;;;5091281;28;20047;-76
2021/12/13 01:38:30;;;;;;;69.10;16.90;;;4.30;99.90;;;;;;5091491;28;20044;-76
2021/12/13 01:40:57;;;;;;;29.80;10.77;;;4.30;99.90;;;;;;5091221;28;20510;-76
2021/12/13 01:43:28;;;;;;;42.03;12.53;;;4.50;99.90;;;;;;5091716;28;20044;-76
2021/12/13 01:45:56;;;;;;;32.57;13.00;;;4.50;99.90;;;;;;5091093;28;20044;-75
2021/12/13 01:48:25;;;;;;;31.20;13.03;;;4.40;99.90;;;;;;5091581;28;20045;-75
2021/12/13 01:51:04;;;;;;;59.10;13.73;;;4.40;99.90;;;;;;5091893;28;20044;-74
2021/12/13 01:53:38;;;;;;;33.60;12.77;;;4.40;99.90;;;;;;5091670;28;20064;-75
2021/12/13 01:56:23;;;;;;;34.30;12.43;;;4.40;99.90;;;;;;5091101;28;20110;-74
2021/12/13 01:58:51;;;;;;;33.10;13.27;;;4.50;99.90;;;;;;5091869;28;20048;-74
2021/12/13 02:01:22;;;;;;;27.20;12.20;;;4.50;99.90;;;;;;5091256;28;20059;-76
2021/12/13 02:03:55;;;;;;;30.20;13.18;;;4.60;99.90;;;;;;5091427;28;20055;-75
2021/12/13 02:06:30;;;;;;;56.20;10.97;;;4.70;99.90;;;;;;5091464;28;20093;-72
2021/12/13 02:09:03;;;;;;;67.50;13.97;;;4.60;99.90;;;;;;5091738;28;20086;-75
2021/12/13 02:11:33;;;;;;;28.73;11.83;;;4.60;99.90;;;;;;5090832;28;20056;-74
2021/12/13 02:14:09;;;;;;;32.20;11.50;;;4.60;99.90;;;;;;5091038;28;20098;-75
2021/12/13 02:19:37;;;;;;;36.30;12.88;;;4.60;99.90;;;;;;5086092;28;20044;-73
2021/12/13 02:22:26;;;;;;;40.27;12.93;;;4.60;99.90;;;;;;5091443;28;20097;-75
2021/12/13 02:24:58;;;;;;;39.23;12.43;;;4.70;99.90;;;;;;5091042;28;20543;-75
2021/12/13 02:27:29;;;;;;;53.53;13.30;;;4.70;99.90;;;;;;5092325;28;20517;-75
2021/12/13 02:30:00;;;;;;;30.23;11.57;;;4.70;99.90;;;;;;5095255;28;20127;-74
2021/12/13 02:32:35;;;;;;;30.73;11.20;;;4.70;99.90;;;;;;5095030;28;20102;-76
2021/12/13 02:35:05;;;;;;;46.43;12.07;;;4.70;99.90;;;;;;5094196;28;20052;-76
2021/12/13 02:37:31;;;;;;;34.73;13.90;;;4.70;99.90;;;;;;5095299;28;20048;-75
2021/12/13 02:40:00;;;;;;;34.17;12.97;;;4.80;99.90;;;;;;5095817;28;20048;-76
2021/12/13 02:42:29;;;;;;;34.30;13.13;;;4.70;99.90;;;;;;5095560;28;20078;-75
2021/12/13 02:45:01;;;;;;;65.90;16.37;;;4.80;99.90;;;;;;5094100;28;20044;-76
2021/12/13 02:47:29;;;;;;;;;;;4.70;99.90;;;;;;5094865;28;20106;-76
2021/12/13 02:49:57;;;;;;;32.60;11.73;;;4.70;99.90;;;;;;5094562;28;19924;-77
2021/12/13 02:52:24;;;;;;;28.57;10.80;;;4.70;99.90;;;;;;5094604;28;20077;-76
2021/12/13 02:54:55;;;;;;;28.50;11.80;;;4.60;99.90;;;;;;5093623;28;20054;-75
2021/12/13 02:57:26;;;;;;;31.23;12.77;;;4.70;99.90;;;;;;5094237;28;20108;-76
2021/12/13 02:59:56;;;;;;;28.37;11.50;;;4.80;99.90;;;;;;5094181;28;20044;-74
2021/12/13 03:02:26;;;;;;;29.77;12.53;;;4.70;99.90;;;;;;5094242;28;20499;-75
2021/12/13 03:04:53;;;;;;;31.20;12.63;;;4.70;99.90;;;;;;5093513;28;20047;-74
2021/12/13 03:07:27;;;;;;;28.73;10.93;;;4.80;99.90;;;;;;5094166;28;20044;-75
2021/12/13 03:09:56;;;;;;;36.80;11.47;;;4.80;99.90;;;;;;5094000;28;20089;-75
2021/12/13 03:12:27;;;;;;;33.90;12.43;;;4.80;99.90;;;;;;5094000;28;20086;-76
2021/12/13 03:14:58;;;;;;;26.40;10.77;;;4.80;99.90;;;;;;5093710;28;20109;-76
2021/12/13 03:17:30;;;;;;;38.75;11.65;;;4.80;99.90;;;;;;5093940;28;20043;-75
2021/12/13 03:20:16;;;;;;;49.47;11.32;;;4.70;99.90;;;;;;5093863;28;20044;-76
2021/12/13 03:23:03;;;;;;;38.50;11.53;;;4.80;99.90;;;;;;5093497;28;20114;-76
2021/12/13 03:25:38;;;;;;;19.17;8.17;;;4.70;99.90;;;;;;5093153;28;20557;-75
2021/12/13 03:28:20;;;;;;;31.20;11.83;;;4.80;99.90;;;;;;5093847;28;20105;-77
2021/12/13 03:30:53;;;;;;;30.37;11.37;;;4.80;99.90;;;;;;5093698;28;20089;-74
2021/12/13 03:33:25;;;;;;;33.23;10.27;;;4.70;99.90;;;;;;5093438;28;20094;-75
2021/12/13 03:35:55;;;;;;;38.70;13.40;;;4.70;99.90;;;;;;5093262;28;20458;-73
2021/12/13 03:38:26;;;;;;;51.40;12.93;;;4.70;99.90;;;;;;5093268;28;20090;-73
2021/12/13 03:40:53;;;;;;;;;;;4.70;99.90;;;;;;5094058;28;20406;-73
2021/12/13 03:43:28;;;;;;;20.80;9.63;;;4.80;99.90;;;;;;5093470;28;19965;-77
2021/12/13 03:46:01;;;;;;;33.90;11.30;;;4.80;99.90;;;;;;5092558;28;20048;-75
2021/12/13 03:48:29;;;;;;;35.30;12.40;;;4.80;99.90;;;;;;5093317;28;20109;-76
2021/12/13 03:50:59;;;;;;;46.00;12.33;;;4.80;99.90;;;;;;5093337;28;20477;-77
2021/12/13 03:53:31;;;;;;;26.50;10.30;;;4.80;99.90;;;;;;5093169;28;20044;-77
2021/12/13 03:56:02;;;;;;;26.23;8.45;;;4.80;99.90;;;;;;5092441;28;20086;-76
2021/12/13 03:58:34;;;;;;;29.15;10.80;;;4.70;99.90;;;;;;5092973;28;20135;-73
2021/12/13 04:01:06;;;;;;;61.37;12.73;;;4.70;99.90;;;;;;5093055;28;20093;-74
2021/12/13 04:03:33;;;;;;;25.10;8.75;;;4.70;99.90;;;;;;5092908;28;20071;-75
2021/12/13 04:06:00;;;;;;;72.67;12.47;;;4.60;99.90;;;;;;5092127;28;20052;-74
2021/12/13 04:08:27;;;;;;;25.83;9.03;;;4.70;99.90;;;;;;5092896;28;20047;-74
2021/12/13 04:10:57;;;;;;;49.17;11.33;;;4.60;99.90;;;;;;5092727;28;20052;-76
2021/12/13 04:13:26;;;;;;;38.83;11.63;;;4.60;99.90;;;;;;5092856;28;20052;-75
2021/12/13 04:16:04;;;;;;;33.23;11.07;;;4.60;99.90;;;;;;5092142;28;20047;-75
2021/12/13 04:19:06;;;;;;;29.03;10.97;;;4.60;99.90;;;;;;5092721;28;20044;-76
2021/12/13 04:21:36;;;;;;;30.77;11.87;;;4.60;99.90;;;;;;5092189;28;20052;-77
2021/12/13 04:24:06;;;;;;;217.37;22.33;;;4.70;99.90;;;;;;5092232;28;20350;-76
2021/12/13 04:26:39;;;;;;;71.90;11.23;;;4.60;99.90;;;;;;5092506;28;20117;-75
2021/12/13 04:29:15;;;;;;;49.47;11.23;;;4.60;99.90;;;;;;5092311;28;20488;-75
2021/12/13 04:31:44;;;;;;;28.27;11.20;;;4.60;99.90;;;;;;5092342;28;20044;-75
2021/12/13 04:34:11;;;;;;;39.30;10.37;;;4.60;99.90;;;;;;5091888;28;20048;-75
2021/12/13 04:36:41;;;;;;;45.27;10.67;;;4.60;99.90;;;;;;5092437;28;20078;-74
2021/12/13 04:39:15;;;;;;;28.73;9.20;;;4.60;99.90;;;;;;5092629;28;20048;-77
2021/12/13 04:41:46;;;;;;;30.23;10.57;;;4.60;99.90;;;;;;5092596;28;20412;-76
2021/12/13 04:44:17;;;;;;;76.68;12.55;;;4.60;99.90;;;;;;5091803;28;20048;-77
2021/12/13 04:46:49;;;;;;;21.57;8.30;;;4.60;99.90;;;;;;5092425;28;20048;-75
2021/12/13 04:49:19;;;;;;;33.43;10.60;;;4.60;99.90;;;;;;5091899;28;20051;-74
2021/12/13 04:51:48;;;;;;;37.87;10.73;;;4.60;99.90;;;;;;5091796;28;20060;-72
2021/12/13 04:54:16;;;;;;;45.37;11.10;;;4.60;99.90;;;;;;5091469;28;20052;-73
2021/12/13 04:56:47;;;;;;;68.87;12.87;;;4.70;99.90;;;;;;5092126;28;20055;-76
2021/12/13 04:59:17;;;;;;;56.30;11.67;;;4.60;99.90;;;;;;5092467;28;20097;-74
2021/12/13 05:01:50;;;;;;;51.23;10.83;;;4.60;99.90;;;;;;5092176;28;20084;-80
2021/12/13 05:04:17;;;;;;;49.07;12.07;;;4.60;99.90;;;;;;5092014;28;20071;-77
2021/12/13 05:06:46;;;;;;;39.53;10.33;;;4.60;99.90;;;;;;5092781;28;20103;-77
2021/12/13 05:09:18;;;;;;;37.90;11.50;;;4.60;99.90;;;;;;5093609;28;20048;-79
2021/12/13 05:11:49;;;;;;;40.73;10.80;;;4.60;99.90;;;;;;5093097;28;20051;-76
2021/12/13 05:14:27;;;;;;;32.73;9.53;;;4.60;99.90;;;;;;5091522;28;20047;-77
2021/12/13 05:16:58;;;;;;;41.30;10.53;;;4.60;99.90;;;;;;5092092;28;20048;-76
2021/12/13 05:19:28;;;;;;;38.93;11.53;;;4.70;99.90;;;;;;5092068;28;20048;-74
2021/12/13 05:21:58;;;;;;;50.63;9.03;;;4.60;99.90;;;;;;5091967;28;20102;-76
2021/12/13 05:24:29;;;;;;;47.97;10.73;;;4.70;99.90;;;;;;5091591;28;20044;-73
2021/12/13 05:27:00;;;;;;;22.97;8.67;;;4.70;99.90;;;;;;5091758;28;20048;-75
2021/12/13 05:29:31;;;;;;;57.50;11.50;;;4.60;99.90;;;;;;5091653;28;20044;-76
2021/12/13 05:32:05;;;;;;;34.55;9.30;;;4.60;99.90;;;;;;5092803;28;20083;-75
2021/12/13 05:34:35;;;;;;;78.90;13.67;;;4.70;99.90;;;;;;5096088;28;20040;-74
2021/12/13 05:37:06;;;;;;;74.13;11.90;;;4.70;99.90;;;;;;5095525;28;20048;-77
2021/12/13 05:39:35;;;;;;;62.30;13.33;;;4.70;99.90;;;;;;5098804;28;20043;-75
2021/12/13 05:42:07;;;;;;;58.40;11.90;;;4.60;99.90;;;;;;5092713;28;20047;-71
2021/12/13 05:44:37;;;;;;;49.55;12.70;;;4.70;99.90;;;;;;5092449;28;20052;-73
2021/12/13 05:47:16;;;;;;;65.23;11.67;;;4.70;99.90;;;;;;5093352;28;20101;-73
2021/12/13 05:49:46;;;;;;;29.27;9.43;;;4.60;99.90;;;;;;5093472;28;20055;-74
2021/12/13 05:52:15;;;;;;;51.67;11.93;;;4.60;99.90;;;;;;5092421;28;20048;-74
2021/12/13 05:54:45;;;;;;;40.00;10.90;;;4.60;99.90;;;;;;5091001;28;20447;-76
2021/12/13 05:57:19;;;;;;;25.13;10.43;;;4.50;99.90;;;;;;5091509;28;20048;-70
2021/12/13 05:59:56;;;;;;;47.00;10.60;;;4.60;99.90;;;;;;5091426;28;20040;-73
2021/12/13 06:02:41;;;;;;;33.77;10.03;;;4.70;99.90;;;;;;5094230;28;20044;-73
2021/12/13 06:05:15;;;;;;;43.07;12.13;;;4.70;99.90;;;;;;5094663;28;20048;-72
2021/12/13 06:07:42;;;;;;;33.27;10.57;;;4.70;99.90;;;;;;5095531;28;20044;-76
2021/12/13 06:10:14;;;;;;;78.87;13.83;;;4.80;99.90;;;;;;5095166;28;20047;-73
2021/12/13 06:12:47;;;;;;;35.60;10.23;;;4.80;99.90;;;;;;5095119;28;20044;-76
2021/12/13 06:15:27;;;;;;;36.17;11.07;;;4.80;99.90;;;;;;5094421;28;20477;-75
2021/12/13 06:18:06;;;;;;;81.17;14.13;;;4.70;99.90;;;;;;5095406;28;20407;-74
2021/12/13 06:20:39;;;;;;;51.87;12.83;;;4.80;99.90;;;;;;5094805;28;20044;-72
2021/12/13 06:23:08;;;;;;;70.00;12.87;;;4.80;99.90;;;;;;5094855;28;20457;-74
2021/12/13 06:25:37;;;;;;;35.03;11.80;;;4.80;99.90;;;;;;5094060;28;20040;-75
2021/12/13 06:28:05;;;;;;;34.27;10.33;;;4.80;99.90;;;;;;5094819;28;20453;-76
2021/12/13 06:30:34;;;;;;;47.63;12.77;;;4.80;99.90;;;;;;5094840;28;20097;-75
2021/12/13 06:33:06;;;;;;;62.37;12.30;;;4.80;99.90;;;;;;5094952;28;20545;-77
2021/12/13 06:35:48;;;;;;;55.23;11.50;;;4.80;99.90;;;;;;5094138;28;20048;-76
2021/12/13 06:38:32;;;;;;;28.20;9.97;;;4.70;99.90;;;;;;5094545;28;20048;-74
2021/12/13 06:41:02;;;;;;;30.17;11.60;;;4.80;99.90;;;;;;5094454;28;20044;-73
2021/12/13 06:43:31;;;;;;;46.57;11.10;;;4.80;99.90;;;;;;5094601;28;20097;-76
2021/12/13 06:46:00;;;;;;;36.17;10.63;;;4.80;99.90;;;;;;5094523;28;20274;-75
2021/12/13 06:48:38;;;;;;;43.13;11.33;;;4.80;99.90;;;;;;5094430;28;20089;-77
2021/12/13 06:51:06;;;;;;;83.33;14.23;;;4.80;99.90;;;;;;5094297;28;20101;-77
2021/12/13 06:53:33;;;;;;;38.57;11.13;;;4.90;99.90;;;;;;5094710;28;20089;-74
2021/12/13 06:56:19;;;;;;;33.67;10.07;;;4.80;99.90;;;;;;5093583;28;20049;-75
2021/12/13 06:58:49;;;;;;;58.17;11.83;;;4.90;99.90;;;;;;5094233;28;20052;-75
2021/12/13 07:01:16;;;;;;;46.93;12.00;;;4.90;99.90;;;;;;5094643;28;20044;-75
2021/12/13 07:03:53;;;;;;;32.33;10.07;;;4.80;99.90;;;;;;5093867;28;20078;-76
2021/12/13 07:06:21;;;;;;;46.57;10.57;;;4.80;99.90;;;;;;5094314;28;20056;-75
2021/12/13 07:09:00;;;;;;;45.43;12.07;;;4.90;99.90;;;;;;5094029;28;20056;-75
2021/12/13 07:11:40;;;;;;;176.80;18.23;;;4.90;99.90;;;;;;5097364;28;20074;-75
2021/12/13 07:14:13;;;;;;;50.80;11.70;;;4.90;99.90;;;;;;5093309;28;20056;-76
2021/12/13 07:16:42;;;;;;;65.20;12.20;;;4.90;99.90;;;;;;5094434;28;20087;-73
2021/12/13 07:19:18;;;;;;;29.43;9.70;;;4.90;99.90;;;;;;5093874;28;20044;-75
2021/12/13 07:21:59;;;;;;;37.53;11.13;;;5.00;99.90;;;;;;5094013;28;20059;-74
2021/12/13 07:24:31;;;;;;;30.20;11.35;;;5.00;99.90;;;;;;5093506;28;20052;-73
2021/12/13 07:27:04;;;;;;;30.08;10.43;;;5.10;99.90;;;;;;5094241;28;20490;-75
2021/12/13 07:29:37;;;;;;;27.70;8.87;;;5.00;99.90;;;;;;5096856;28;20048;-73
2021/12/13 07:32:10;;;;;;;24.43;8.73;;;5.00;99.90;;;;;;5093674;28;20048;-75
2021/12/13 07:34:54;;;;;;;33.23;9.23;;;5.00;99.90;;;;;;5092964;28;20085;-75
2021/12/13 07:37:39;;;;;;;37.63;9.93;;;5.00;99.90;;;;;;5093523;28;20109;-75
2021/12/13 07:40:23;;;;;;;53.77;10.23;;;5.00;99.90;;;;;;5093325;28;20048;-73
2021/12/13 07:42:55;;;;;;;25.37;9.23;;;4.90;99.90;;;;;;5093227;28;20048;-74
2021/12/13 07:45:25;;;;;;;21.88;9.10;;;4.90;99.90;;;;;;5093095;28;20450;-75
2021/12/13 07:47:53;;;;;;;42.20;11.07;;;4.90;99.90;;;;;;5093436;28;20044;-74
2021/12/13 07:50:23;;;;;;;29.13;10.63;;;5.00;99.90;;;;;;5093295;28;20192;-77
2021/12/13 07:52:56;;;;;;;26.37;9.63;;;4.90;99.90;;;;;;5093038;28;20048;-75
2021/12/13 07:55:26;;;;;;;48.37;10.80;;;4.90;99.90;;;;;;5092294;28;20040;-72
2021/12/13 07:57:56;;;;;;;35.33;11.07;;;4.90;99.90;;;;;;5092983;28;20079;-73
2021/12/13 08:00:27;;;;;;;19.63;9.10;;;4.90;99.90;;;;;;5093069;28;20048;-75
2021/12/13 08:02:56;;;;;;;43.13;10.40;;;4.90;99.90;;;;;;5093088;28;20043;-73
2021/12/13 08:05:28;;;;;;;85.37;14.57;;;4.90;99.90;;;;;;5092791;28;20048;-76
2021/12/13 08:07:59;;;;;;;36.27;10.43;;;4.80;99.90;;;;;;5092855;28;20094;-75
2021/12/13 08:10:29;;;;;;;39.70;16.00;;;4.90;99.90;;;;;;5092783;28;20059;-78
2021/12/13 08:13:02;;;;;;;64.33;14.93;;;5.00;99.90;;;;;;5093643;28;20044;-76
2021/12/13 08:15:34;;;;;;;25.07;10.43;;;5.10;99.90;;;;;;5092876;28;20044;-74
2021/12/13 08:18:04;;;;;;;26.70;10.00;;;5.00;99.90;;;;;;5092811;28;20040;-75
2021/12/13 08:20:36;;;;;;;31.60;10.07;;;5.00;99.90;;;;;;5092836;28;20101;-77
2021/12/13 08:23:03;;;;;;;;;;;5.00;99.90;;;;;;5093428;28;20093;-76
2021/12/13 08:25:32;;;;;;;32.47;11.80;;;5.10;99.90;;;;;;5092271;28;19920;-75
2021/12/13 08:28:02;;;;;;;26.83;11.23;;;5.10;99.90;;;;;;5092809;28;20044;-74
2021/12/13 08:30:31;;;;;;;32.43;11.70;;;5.10;99.90;;;;;;5092615;28;20099;-72
2021/12/13 08:33:04;;;;;;;41.87;12.53;;;5.20;99.90;;;;;;5092329;28;20509;-75
2021/12/13 08:38:35;;;;;;;34.30;12.10;;;5.10;99.90;;;;;;5109849;27;20960;-74
2021/12/13 08:41:08;;;;;;;27.73;10.40;;;5.10;99.90;;;;;;5109719;28;20044;-74
2021/12/13 08:43:39;;;;;;;44.27;10.80;;;5.20;99.90;;;;;;5109666;28;20487;-74
2021/12/13 08:46:07;;;;;;;29.00;11.15;;;5.30;99.90;;;;;;5093408;28;20131;-75
2021/12/13 08:48:44;;;;;;;53.90;11.57;;;5.20;99.90;;;;;;5090080;28;20131;-76
2021/12/13 08:51:19;;;;;;;30.10;10.33;;;5.20;99.90;;;;;;5089934;28;20048;-76
2021/12/13 08:53:58;;;;;;;53.57;11.87;;;5.20;99.90;;;;;;5089713;28;20052;-74
2021/12/13 08:56:27;;;;;;;39.23;11.37;;;5.30;99.90;;;;;;5092382;28;20094;-78
2021/12/13 08:58:58;;;;;;;62.63;13.57;;;5.20;99.90;;;;;;5091446;28;20044;-78
2021/12/13 09:01:28;;;;;;;;;;;5.30;99.90;;;;;;5090073;28;20131;-75
2021/12/13 09:03:55;;;;;;;23.23;7.73;;;5.30;99.90;;;;;;5090176;28;20098;-75
2021/12/13 09:06:31;;;;;;;39.10;12.00;;;5.30;99.90;;;;;;5089024;28;20040;-72
2021/12/13 09:09:06;;;;;;;36.43;10.40;;;5.20;99.90;;;;;;5089133;28;20102;-73
2021/12/13 09:11:38;;;;;;;26.90;10.43;;;5.30;99.90;;;;;;5090020;28;20051;-80
2021/12/13 09:14:07;;;;;;;;;;;5.30;99.90;;;;;;5089769;28;20051;-74
2021/12/13 09:16:46;;;;;;;53.67;11.83;;;5.40;99.90;;;;;;5088815;28;19920;-73
2021/12/13 09:19:19;;;;;;;50.03;10.33;;;5.40;99.90;;;;;;5088617;28;20044;-75
2021/12/13 09:21:50;;;;;;;30.47;9.93;;;5.40;99.90;;;;;;5089169;28;20063;-77
2021/12/13 09:24:27;;;;;;;113.30;14.80;;;5.50;99.90;;;;;;5088229;28;20044;-74
2021/12/13 09:26:57;;;;;;;84.53;13.67;;;5.40;99.90;;;;;;5091125;28;20581;-73
2021/12/13 09:29:24;;;;;;;32.77;11.87;;;5.40;99.90;;;;;;5089504;28;20317;-74
2021/12/13 09:31:53;;;;;;;31.83;12.07;;;5.40;99.90;;;;;;5089030;28;20055;-77
2021/12/13 09:34:22;;;;;;;32.67;10.20;;;5.50;99.90;;;;;;5088006;28;20056;-77
2021/12/13 09:36:52;;;;;;;25.83;10.70;;;5.50;99.90;;;;;;5088620;28;20048;-73
2021/12/13 09:39:25;;;;;;;39.40;10.53;;;5.50;99.90;;;;;;5088332;28;20553;-71
2021/12/13 09:41:57;;;;;;;49.23;12.67;;;5.50;99.90;;;;;;5088224;28;20070;-73
2021/12/13 09:44:31;;;;;;;38.70;10.10;;;5.60;99.90;;;;;;5087936;28;20128;-74
2021/12/13 09:47:04;;;;;;;30.07;10.13;;;5.70;99.90;;;;;;5088645;28;20044;-73
2021/12/13 09:49:34;;;;;;;31.83;10.73;;;5.80;99.90;;;;;;5078041;28;20040;-77
2021/12/13 09:52:06;;;;;;;25.00;10.33;;;5.90;99.90;;;;;;5083126;28;20044;-79
2021/12/13 09:54:37;;;;;;;29.65;11.60;;;6.00;99.90;;;;;;5086157;28;20055;-80
2021/12/13 09:57:07;;;;;;;;;;;5.90;99.90;;;;;;5075868;28;20139;-78
2021/12/13 09:59:38;;;;;;;27.60;8.50;;;5.90;99.90;;;;;;5076552;28;19920;-77
2021/12/13 10:02:09;;;;;;;27.95;10.98;;;6.00;99.90;;;;;;5075361;28;20459;-73
2021/12/13 10:04:39;;;;;;;28.75;10.68;;;6.00;99.90;;;;;;5075095;28;20102;-79
2021/12/13 10:07:08;;;;;;;63.80;10.60;;;6.00;99.90;;;;;;5076775;28;20052;-79
2021/12/13 10:09:40;;;;;;;27.53;10.90;;;6.00;99.90;;;;;;5076858;28;20052;-78
2021/12/13 10:12:09;;;;;;;;;;;5.90;99.90;;;;;;5076178;28;20056;-76
2021/12/13 10:14:41;;;;;;;29.77;9.87;;;5.90;99.90;;;;;;5076909;28;19921;-75
2021/12/13 10:17:13;;;;;;;;;;;5.90;99.90;;;;;;5078497;28;20098;-78
2021/12/13 10:19:44;;;;;;;49.95;12.13;;;5.90;99.90;;;;;;5074198;28;19927;-73
2021/12/13 10:22:15;;;;;;;39.63;10.88;;;5.90;99.90;;;;;;5074698;28;20048;-72
2021/12/13 10:24:46;;;;;;;20.20;7.75;;;5.90;99.90;;;;;;5073813;28;20044;-74
2021/12/13 10:27:16;;;;;;;34.30;9.67;;;5.90;99.90;;;;;;5074292;28;20056;-75
2021/12/13 10:29:46;;;;;;;40.60;10.60;;;6.00;99.90;;;;;;5074133;28;20090;-74
2021/12/13 10:32:18;;;;;;;70.47;11.70;;;5.90;99.90;;;;;;5073838;28;20098;-73
2021/12/13 10:34:48;;;;;;;27.70;8.17;;;6.00;99.90;;;;;;5074246;28;20056;-80
2021/12/13 10:37:20;;;;;;;58.00;10.80;;;6.00;99.90;;;;;;5074245;28;20048;-75
2021/12/13 10:39:52;;;;;;;27.45;10.02;;;6.00;99.90;;;;;;5073742;28;20045;-74
2021/12/13 10:42:24;;;;;;;26.40;8.80;;;6.10;99.90;;;;;;5073648;28;20075;-75
2021/12/13 10:44:51;;;;;;;;;;;6.10;99.90;;;;;;5074734;28;20090;-73
2021/12/13 10:47:21;;;;;;;21.67;8.20;;;6.20;99.90;;;;;;5075969;28;19966;-76
2021/12/13 10:49:50;;;;;;;28.10;8.83;;;6.20;99.90;;;;;;5081151;28;20102;-72
2021/12/13 10:52:21;;;;;;;38.40;10.50;;;6.30;99.90;;;;;;5074894;28;20060;-78
2021/12/13 10:54:53;;;;;;;29.27;8.07;;;6.30;99.90;;;;;;5077371;28;20110;-75
2021/12/13 10:57:23;;;;;;;45.53;10.70;;;6.40;99.90;;;;;;5074598;28;20102;-78
2021/12/13 10:59:51;;;;;;;24.53;8.73;;;6.50;99.90;;;;;;5073036;28;20048;-76
2021/12/13 11:02:23;;;;;;;23.67;10.13;;;6.50;99.90;;;;;;5074896;28;20527;-76
2021/12/13 11:04:54;;;;;;;47.15;20.50;;;6.50;99.90;;;;;;5074516;28;20049;-74
2021/12/13 11:07:21;;;;;;;24.17;10.98;;;6.60;99.90;;;;;;5075327;28;20053;-77
2021/12/13 11:09:51;;;;;;;22.52;8.68;;;6.70;99.90;;;;;;5073921;28;20049;-77
2021/12/13 11:12:21;;;;;;;16.07;6.83;;;6.60;99.90;;;;;;5074292;28;20056;-76
2021/12/13 11:14:51;;;;;;;13.75;6.95;;;6.60;99.90;;;;;;5073250;28;20098;-76
2021/12/13 11:17:25;;;;;;;16.87;7.33;;;6.60;99.90;;;;;;5073496;28;20067;-78
2021/12/13 11:19:56;;;;;;;16.73;7.80;;;6.60;99.90;;;;;;5074914;28;20048;-75
2021/12/13 11:22:27;;;;;;;18.33;7.68;;;6.50;99.90;;;;;;5075396;28;20090;-76
2021/12/13 11:25:00;;;;;;;16.02;7.40;;;6.50;99.90;;;;;;5074856;28;20117;-76
2021/12/13 11:27:32;;;;;;;18.05;6.95;;;6.50;99.90;;;;;;5075476;28;20044;-77
2021/12/13 11:30:00;;;;;;;14.93;6.47;;;6.60;99.90;;;;;;5074588;28;20098;-76
2021/12/13 11:33:03;;;;;;;19.27;7.15;;;6.60;99.90;;;;;;5074057;28;20049;-75
2021/12/13 11:36:13;;;;;;;16.93;7.03;;;6.60;99.90;;;;;;5073286;28;20075;-76
2021/12/13 11:39:31;;;;;;;15.55;7.47;;;6.70;99.90;;;;;;5073989;28;20044;-76
2021/12/13 11:42:45;;;;;;;17.15;7.13;;;6.70;99.90;;;;;;5041879;28;20094;-76
2021/12/13 11:45:47;;;;;;;21.00;7.20;;;6.70;99.90;;;;;;5079303;28;20131;-79
2021/12/13 11:48:50;;;;;;;20.02;7.70;;;6.60;99.90;;;;;;5074996;28;20040;-77
2021/12/13 11:51:44;;;;;;;18.47;7.63;;;6.70;99.90;;;;;;5032439;28;20333;-78
2021/12/13 11:54:36;;;;;;;14.87;6.80;;;6.60;99.90;;;;;;5073927;28;20052;-81
2021/12/13 11:57:27;;;;;;;23.40;8.50;;;6.60;99.90;;;;;;5072563;28;20550;-78
2021/12/13 12:00:08;;;;;;;24.85;8.60;;;6.60;99.90;;;;;;5072649;28;20470;-77
2021/12/13 12:02:49;;;;;;;18.75;6.55;;;6.60;99.90;;;;;;5072114;28;20048;-73
2021/12/13 12:05:57;;;;;;;15.87;7.47;;;6.70;99.90;;;;;;5072940;28;20048;-78
2021/12/13 12:08:56;;;;;;;17.48;7.70;;;6.80;99.90;;;;;;5074615;28;20045;-75
2021/12/13 12:11:47;;;;;;;18.63;8.10;;;7.00;99.90;;;;;;5073661;28;20052;-76
2021/12/13 12:14:23;;;;;;;24.50;7.43;;;7.00;99.90;;;;;;5071600;28;20044;-77
2021/12/13 12:16:52;;;;;;;12.70;5.97;;;7.00;99.90;;;;;;5072046;28;20048;-78
2021/12/13 12:19:22;;;;;;;17.38;6.47;;;7.00;99.90;;;;;;5073146;28;20052;-74
2021/12/13 12:21:55;;;;;;;19.17;8.50;;;7.00;99.90;;;;;;5072045;28;20044;-77
2021/12/13 12:24:24;;;;;;;19.70;8.73;;;7.00;99.90;;;;;;5071473;28;20049;-76
2021/12/13 12:26:55;;;;;;;17.95;7.43;;;6.90;99.90;;;;;;5071625;28;20409;-72
2021/12/13 12:29:26;;;;;;;18.05;7.97;;;6.90;99.90;;;;;;5072119;28;20144;-71
2021/12/13 12:31:59;;;;;;;21.35;8.55;;;7.00;99.90;;;;;;5071915;28;20049;-75
2021/12/13 12:34:26;;;;;;;15.43;7.43;;;7.00;99.90;;;;;;5071622;28;20052;-76
2021/12/13 12:37:23;;;;;;;30.55;7.95;;;7.00;99.90;;;;;;5071607;28;20075;-76
2021/12/13 12:40:11;;;;;;;19.02;7.32;;;7.00;99.90;;;;;;5074368;28;20110;-74
2021/12/13 12:42:40;;;;;;;19.23;7.53;;;7.00;99.90;;;;;;5071705;28;20076;-74
2021/12/13 12:45:20;;;;;;;47.75;9.35;;;7.10;99.90;;;;;;5071027;28;20554;-74
2021/12/13 12:48:24;;;;;;;22.10;8.93;;;7.00;99.90;;;;;;5071773;28;20095;-74
2021/12/13 12:50:59;;;;;;;39.70;9.68;;;7.10;99.90;;;;;;5009906;28;20092;-76
2021/12/13 12:53:41;;;;;;;26.92;9.07;;;7.00;99.90;;;;;;5009592;28;20453;-76
2021/12/13 12:56:13;;;;;;;21.87;8.90;;;7.00;99.90;;;;;;5009671;28;20081;-74
2021/12/13 12:58:49;;;;;;;47.35;10.75;;;7.00;99.90;;;;;;5010394;28;20049;-74
2021/12/13 13:01:21;;;;;;;24.42;8.85;;;7.00;99.90;;;;;;5009902;28;20477;-76
2021/12/13 13:03:48;;;;;;;27.98;9.15;;;7.00;99.90;;;;;;5010714;28;20045;-76
2021/12/13 13:06:18;;;;;;;17.63;7.32;;;7.00;99.90;;;;;;5009149;28;20127;-75
2021/12/13 13:08:49;;;;;;;20.55;8.85;;;7.10;99.90;;;;;;5009601;28;20450;-77
2021/12/13 13:11:27;;;;;;;31.75;9.00;;;7.10;99.90;;;;;;5011335;28;20050;-76
2021/12/13 13:13:56;;;;;;;19.65;9.10;;;7.10;99.90;;;;;;5010128;28;20156;-75
2021/12/13 13:16:31;;;;;;;28.35;8.20;;;7.20;99.90;;;;;;5009452;28;20042;-74
2021/12/13 13:18:57;;;;;;;25.90;8.53;;;7.10;99.90;;;;;;5009946;28;20050;-75
2021/12/13 13:21:25;;;;;;;16.63;6.93;;;7.10;99.90;;;;;;5034003;28;20498;-75